createdAt,value
2016-12-11T00:00:52.727Z,75.42
2016-12-11T00:02:03.996Z,75.7
2016-12-11T00:03:15.041Z,75.89
2016-12-11T00:04:26.264Z,75.42
2016-12-11T00:05:37.504Z,75.6
2016-12-11T00:06:49.006Z,76.08
2016-12-11T00:08:00.400Z,76.46
2016-12-11T00:09:11.698Z,76.56
2016-12-11T00:10:22.692Z,76.46
2016-12-11T00:11:34.447Z,76.46
2016-12-11T00:12:45.667Z,76.46
2016-12-11T00:13:57.853Z,76.46
2016-12-11T00:15:10.142Z,76.56
2016-12-11T00:16:21.617Z,76.93
2016-12-11T00:17:32.840Z,76.93
2016-12-11T00:18:44.133Z,76.56
2016-12-11T00:19:55.385Z,76.18
2016-12-11T00:21:06.891Z,76.37
2016-12-11T00:22:17.936Z,76.65
2016-12-11T00:23:29.561Z,76.65
2016-12-11T00:24:40.969Z,76.65
2016-12-11T00:25:52.221Z,76.65
2016-12-11T00:27:03.334Z,76.56
2016-12-11T00:28:14.488Z,76.84
2016-12-11T00:29:25.566Z,77.12
2016-12-11T00:30:36.729Z,77.18
2016-12-11T00:31:48.191Z,77.18
2016-12-11T00:32:59.310Z,77.66
2016-12-11T00:34:10.436Z,77.12
2016-12-11T00:35:21.775Z,77.28
2016-12-11T00:36:32.813Z,77.09
2016-12-11T00:37:44.045Z,76.9
2016-12-11T00:38:55.500Z,77.12
2016-12-11T00:40:06.647Z,77.28
2016-12-11T00:41:17.667Z,77.41
2016-12-11T00:42:29.286Z,76.93
2016-12-11T00:43:40.781Z,76.75
2016-12-11T00:44:52.151Z,76.65
2016-12-11T00:46:18.161Z,76.65
2016-12-11T00:47:29.260Z,77.12
2016-12-11T00:48:40.468Z,76.93
2016-12-11T00:49:51.540Z,76.75
2016-12-11T00:51:02.695Z,76.93
2016-12-11T00:52:13.835Z,77.75
2016-12-11T00:53:25.001Z,77.66
2016-12-11T00:54:36.055Z,77.56
2016-12-11T00:55:48.175Z,77.75
2016-12-11T00:56:59.187Z,77.66
2016-12-11T00:58:10.398Z,77.75
2016-12-11T00:59:21.566Z,77.75
2016-12-11T01:00:32.924Z,77.66
2016-12-11T01:01:43.947Z,77.56
2016-12-11T01:02:55.132Z,77.84
2016-12-11T01:04:06.218Z,78.13
2016-12-11T01:05:17.647Z,77.75
2016-12-11T01:06:28.691Z,77.66
2016-12-11T01:07:39.843Z,77.75
2016-12-11T01:08:50.853Z,77.66
2016-12-11T01:10:02.095Z,77.84
2016-12-11T01:11:13.176Z,78.13
2016-12-11T01:12:24.290Z,78.13
2016-12-11T01:13:37.613Z,77.66
2016-12-11T01:14:48.798Z,78.13
2016-12-11T01:15:59.864Z,78.42
2016-12-11T01:17:11.071Z,78.7
2016-12-11T01:18:22.250Z,78.32
2016-12-11T01:19:33.372Z,78.13
2016-12-11T01:20:44.385Z,78.23
2016-12-11T01:21:55.877Z,78.23
2016-12-11T01:23:06.957Z,78.23
2016-12-11T01:24:18.139Z,78.23
2016-12-11T01:25:29.205Z,78.42
2016-12-11T01:26:40.352Z,78.23
2016-12-11T01:27:51.365Z,78.42
2016-12-11T01:29:02.540Z,78.23
2016-12-11T01:30:13.569Z,78.42
2016-12-11T01:31:24.761Z,78.42
2016-12-11T01:32:35.771Z,78.89
2016-12-11T01:33:46.956Z,78.8
2016-12-11T01:34:57.992Z,79.27
2016-12-11T01:36:09.128Z,79.08
2016-12-11T01:37:20.494Z,78.61
2016-12-11T01:38:40.810Z,79.08
2016-12-11T01:39:51.987Z,79.08
2016-12-11T01:41:03.011Z,78.89
2016-12-11T01:42:14.209Z,79.36
2016-12-11T01:43:25.554Z,78.89
2016-12-11T01:44:36.701Z,78.99
2016-12-11T01:45:48.304Z,78.8
2016-12-11T01:48:25.795Z,78.99
2016-12-11T01:49:36.856Z,78.99
2016-12-11T01:50:48.021Z,78.89
2016-12-11T01:51:59.330Z,78.32
2016-12-11T01:53:10.731Z,78.8
2016-12-11T01:54:21.922Z,78.99
2016-12-11T01:55:33.134Z,78.8
2016-12-11T01:56:44.148Z,78.89
2016-12-11T01:57:55.537Z,79.55
2016-12-11T01:59:06.791Z,79.46
2016-12-11T02:00:17.961Z,79.55
2016-12-11T02:01:29.014Z,79.65
2016-12-11T02:02:40.127Z,79.36
2016-12-11T02:03:51.375Z,79.94
2016-12-11T02:05:02.488Z,79.94
2016-12-11T02:06:13.797Z,79.94
2016-12-11T02:07:24.963Z,79.74
2016-12-11T02:08:36.012Z,80.13
2016-12-11T02:09:47.426Z,80.32
2016-12-11T02:10:58.472Z,80.51
2016-12-11T02:12:09.948Z,80.03
2016-12-11T02:13:21.001Z,80.32
2016-12-11T02:14:32.142Z,80.03
2016-12-11T02:15:43.444Z,80.51
2016-12-11T02:16:54.573Z,80.03
2016-12-11T02:18:05.893Z,79.74
2016-12-11T02:19:17.053Z,79.94
2016-12-11T02:20:28.061Z,80.51
2016-12-11T02:21:39.443Z,80.51
2016-12-11T02:22:50.485Z,80.51
2016-12-11T02:24:01.922Z,80.32
2016-12-11T02:25:12.976Z,80.6
2016-12-11T02:26:24.226Z,80.32
2016-12-11T02:27:38.063Z,80.41
2016-12-11T02:28:49.203Z,80.22
2016-12-11T02:30:00.509Z,80.13
2016-12-11T02:31:11.630Z,80.22
2016-12-11T02:32:22.687Z,80.6
2016-12-11T02:33:34.062Z,80.22
2016-12-11T02:34:45.071Z,80.22
2016-12-11T02:35:56.504Z,80.41
2016-12-11T02:37:07.581Z,80.88
2016-12-11T02:38:18.697Z,81.07
2016-12-11T02:39:30.091Z,80.98
2016-12-11T02:40:41.233Z,81.26
2016-12-11T02:41:52.260Z,81.36
2016-12-11T02:43:03.385Z,81.17
2016-12-11T02:44:14.721Z,81.26
2016-12-11T02:45:26.133Z,81.55
2016-12-11T02:46:37.159Z,81.55
2016-12-11T02:47:48.622Z,81.84
2016-12-11T02:48:59.645Z,81.26
2016-12-11T02:50:10.861Z,81.65
2016-12-11T02:51:22.448Z,81.65
2016-12-11T02:52:33.626Z,82.03
2016-12-11T02:53:44.679Z,81.74
2016-12-11T02:54:55.791Z,82.03
2016-12-11T02:56:06.813Z,81.93
2016-12-11T02:57:18.168Z,82.03
2016-12-11T02:58:29.204Z,81.36
2016-12-11T02:59:40.331Z,81.74
2016-12-11T03:00:51.679Z,81.36
2016-12-11T03:02:02.784Z,80.88
2016-12-11T03:03:14.043Z,80.79
2016-12-11T03:04:25.229Z,81.45
2016-12-11T03:05:36.336Z,81.07
2016-12-11T03:06:47.510Z,80.88
2016-12-11T03:07:58.777Z,80.98
2016-12-11T03:09:10.182Z,80.88
2016-12-11T03:10:21.222Z,80.88
2016-12-11T03:11:32.407Z,80.69
2016-12-11T03:12:43.505Z,81.36
2016-12-11T03:13:54.941Z,80.88
2016-12-11T03:15:06.218Z,81.36
2016-12-11T03:16:17.389Z,81.36
2016-12-11T03:17:28.507Z,81.07
2016-12-11T03:18:39.673Z,81.84
2016-12-11T03:19:50.690Z,81.36
2016-12-11T03:21:02.080Z,81.74
2016-12-11T03:22:13.373Z,81.65
2016-12-11T03:23:24.864Z,81.26
2016-12-11T03:24:35.942Z,81.55
2016-12-11T03:25:47.066Z,81.36
2016-12-11T03:26:58.385Z,81.84
2016-12-11T03:28:09.567Z,82.5
2016-12-11T03:29:20.870Z,82.21
2016-12-11T03:30:32.005Z,82.97
2016-12-11T03:31:43.033Z,82.78
2016-12-11T03:32:54.403Z,83.07
2016-12-11T03:34:05.633Z,82.78
2016-12-11T03:35:16.790Z,83.26
2016-12-11T03:36:28.164Z,83.36
2016-12-11T03:37:39.351Z,83.64
2016-12-11T03:38:50.646Z,83.26
2016-12-11T03:40:01.864Z,83.07
2016-12-11T03:41:15.374Z,83.36
2016-12-11T03:42:26.549Z,83.45
2016-12-11T03:43:38.151Z,83.83
2016-12-11T03:44:49.538Z,84.11
2016-12-11T03:46:00.590Z,84.11
2016-12-11T03:47:11.793Z,84.11
2016-12-11T03:48:22.802Z,84.21
2016-12-11T03:49:34.207Z,84.11
2016-12-11T03:50:45.484Z,84.4
2016-12-11T03:51:56.707Z,84.21
2016-12-11T03:53:08.108Z,84.21
2016-12-11T03:54:19.236Z,84.78
2016-12-11T03:55:30.262Z,84.49
2016-12-11T03:56:41.952Z,84.72
2016-12-11T03:57:53.048Z,84.68
2016-12-11T03:59:04.197Z,84.72
2016-12-11T04:00:15.588Z,84.4
2016-12-11T04:01:26.730Z,84.53
2016-12-11T04:02:38.321Z,84.44
2016-12-11T04:03:49.437Z,83.97
2016-12-11T04:05:00.507Z,84.06
2016-12-11T04:06:11.685Z,84.34
2016-12-11T04:07:22.690Z,84.63
2016-12-11T04:08:34.397Z,84.4
2016-12-11T04:09:45.521Z,85.16
2016-12-11T04:10:56.804Z,84.53
2016-12-11T04:12:07.884Z,84.59
2016-12-11T04:13:19.120Z,84.44
2016-12-11T04:14:30.427Z,84.3
2016-12-11T04:15:41.807Z,84.53
2016-12-11T04:16:52.857Z,84.53
2016-12-11T04:18:03.975Z,84.72
2016-12-11T04:19:15.010Z,84.49
2016-12-11T04:20:26.391Z,84.53
2016-12-11T04:21:37.658Z,84.49
2016-12-11T04:22:48.831Z,84.87
2016-12-11T04:24:00.213Z,84.4
2016-12-11T04:25:11.319Z,84.3
2016-12-11T04:26:22.613Z,84.87
2016-12-11T04:27:34.485Z,84.97
2016-12-11T04:28:45.470Z,84.97
2016-12-11T04:29:56.612Z,84.59
2016-12-11T04:31:07.644Z,84.53
2016-12-11T04:32:19.340Z,84.59
2016-12-11T04:33:30.674Z,84.72
2016-12-11T04:34:41.833Z,84.53
2016-12-11T04:35:53.108Z,84.25
2016-12-11T04:37:04.311Z,84.63
2016-12-11T04:38:15.626Z,84.4
2016-12-11T04:39:26.748Z,84.3
2016-12-11T04:40:38.128Z,84.97
2016-12-11T04:41:49.267Z,84.68
2016-12-11T04:43:00.282Z,84.49
2016-12-11T04:44:11.934Z,85.11
2016-12-11T04:45:23.384Z,84.68
2016-12-11T04:46:34.556Z,84.78
2016-12-11T04:47:45.823Z,84.63
2016-12-11T04:48:56.942Z,84.82
2016-12-11T04:50:08.281Z,84.53
2016-12-11T04:51:19.372Z,84.49
2016-12-11T04:52:30.578Z,84.72
2016-12-11T04:53:41.984Z,84.68
2016-12-11T04:54:55.475Z,85.11
2016-12-11T04:56:06.880Z,84.97
2016-12-11T04:57:17.978Z,85.11
2016-12-11T04:58:29.154Z,85.06
2016-12-11T04:59:40.207Z,85.35
2016-12-11T05:00:51.340Z,85.39
2016-12-11T05:02:02.937Z,85.35
2016-12-11T05:03:14.313Z,85.58
2016-12-11T05:04:25.438Z,86.34
2016-12-11T05:05:36.544Z,85.63
2016-12-11T05:06:47.919Z,85.49
2016-12-11T05:07:59.585Z,85.3
2016-12-11T05:09:10.937Z,85.2
2016-12-11T05:10:22.213Z,85.39
2016-12-11T05:11:33.271Z,85.2
2016-12-11T05:12:44.426Z,85.68
2016-12-11T05:13:56.069Z,85.77
2016-12-11T05:15:07.447Z,85.86
2016-12-11T05:16:18.556Z,85.77
2016-12-11T05:17:30.003Z,86.15
2016-12-11T05:18:41.031Z,85.58
2016-12-11T05:19:52.416Z,85.58
2016-12-11T05:21:04.026Z,85.68
2016-12-11T05:22:15.200Z,86.43
2016-12-11T05:23:26.225Z,86.05
2016-12-11T05:24:37.341Z,86.05
2016-12-11T05:25:48.605Z,85.86
2016-12-11T05:27:00.003Z,86.15
2016-12-11T05:28:11.108Z,86.34
2016-12-11T05:29:22.251Z,86.05
2016-12-11T05:30:33.261Z,85.96
2016-12-11T05:31:44.972Z,86.05
2016-12-11T05:32:56.242Z,86.24
2016-12-11T05:34:07.412Z,85.96
2016-12-11T05:35:18.461Z,86.24
2016-12-11T05:36:29.589Z,85.68
2016-12-11T05:37:40.911Z,86.34
2016-12-11T05:38:52.024Z,85.96
2016-12-11T05:40:03.651Z,86.24
2016-12-11T05:41:14.800Z,86.05
2016-12-11T05:42:25.834Z,85.96
2016-12-11T05:43:37.219Z,85.68
2016-12-11T05:44:48.346Z,86.29
2016-12-11T05:45:59.773Z,86.38
2016-12-11T05:47:10.827Z,86.34
2016-12-11T05:48:21.980Z,86.19
2016-12-11T05:49:33.246Z,85.96
2016-12-11T05:50:44.401Z,86.34
2016-12-11T05:51:55.508Z,86.34
2016-12-11T05:53:06.952Z,86.24
2016-12-11T05:54:17.997Z,86.38
2016-12-11T05:55:29.416Z,86
2016-12-11T05:56:40.441Z,85.72
2016-12-11T05:57:51.667Z,85.91
2016-12-11T05:59:02.951Z,86.47
2016-12-11T06:00:14.105Z,86
2016-12-11T06:01:25.389Z,85.91
2016-12-11T06:02:36.597Z,85.91
2016-12-11T06:03:47.979Z,85.91
2016-12-11T06:04:59.455Z,85.91
2016-12-11T06:06:10.503Z,86.29
2016-12-11T06:07:21.876Z,85.91
2016-12-11T06:08:35.141Z,85.62
2016-12-11T06:09:46.301Z,85.81
2016-12-11T06:10:57.659Z,85.53
2016-12-11T06:12:09.048Z,85.81
2016-12-11T06:13:21.746Z,85.62
2016-12-11T06:14:32.861Z,85.81
2016-12-11T06:15:43.937Z,85.72
2016-12-11T06:16:55.063Z,85.34
2016-12-11T06:18:06.091Z,85.81
2016-12-11T06:19:17.844Z,85.76
2016-12-11T06:20:29.150Z,85.24
2016-12-11T06:21:40.455Z,85.47
2016-12-11T06:22:51.491Z,86.05
2016-12-11T06:24:02.972Z,85.66
2016-12-11T06:25:14.031Z,85.38
2016-12-11T06:26:25.166Z,85.76
2016-12-11T06:27:36.584Z,85.38
2016-12-11T06:28:47.723Z,85.66
2016-12-11T06:29:58.725Z,85.28
2016-12-11T06:31:10.126Z,85.57
2016-12-11T06:32:21.198Z,85.66
2016-12-11T06:33:32.946Z,85.47
2016-12-11T06:34:43.961Z,85.38
2016-12-11T06:35:55.472Z,85.38
2016-12-11T06:37:06.797Z,85.47
2016-12-11T06:38:18.477Z,85.76
2016-12-11T06:39:29.865Z,85.47
2016-12-11T06:40:41.244Z,85.76
2016-12-11T06:41:52.289Z,86.14
2016-12-11T06:43:03.676Z,85.95
2016-12-11T06:44:14.709Z,86.14
2016-12-11T06:45:25.913Z,86.24
2016-12-11T06:46:37.164Z,86.52
2016-12-11T06:47:48.313Z,85.95
2016-12-11T06:48:59.642Z,86.14
2016-12-11T06:50:10.776Z,85.76
2016-12-11T06:51:21.924Z,85.76
2016-12-11T06:52:33.272Z,85.47
2016-12-11T06:53:44.521Z,85.66
2016-12-11T06:54:55.959Z,85.71
2016-12-11T06:56:06.991Z,86.38
2016-12-11T06:57:18.138Z,86.43
2016-12-11T06:58:29.200Z,86.28
2016-12-11T06:59:40.416Z,85.95
2016-12-11T07:00:51.736Z,86.52
2016-12-11T07:02:02.838Z,86.85
2016-12-11T07:03:14.122Z,86.8
2016-12-11T07:04:25.379Z,86.71
2016-12-11T07:05:36.448Z,86.85
2016-12-11T07:06:47.825Z,86.47
2016-12-11T07:07:58.858Z,84.04
2016-12-11T07:09:10.222Z,82.18
2016-12-11T07:10:21.301Z,80.31
2016-12-11T07:11:32.493Z,81.23
2016-12-11T07:12:43.782Z,81.89
2016-12-11T07:13:54.921Z,82.7
2016-12-11T07:15:06.222Z,83.56
2016-12-11T07:16:17.379Z,83.85
2016-12-11T07:17:28.706Z,83.75
2016-12-11T07:18:40.114Z,84.89
2016-12-11T07:19:51.301Z,85.18
2016-12-11T07:21:02.510Z,85.14
2016-12-11T07:22:16.013Z,85.42
2016-12-11T07:23:27.159Z,85.52
2016-12-11T07:24:38.411Z,85.42
2016-12-11T07:25:49.555Z,85.71
2016-12-11T07:27:00.901Z,85.33
2016-12-11T07:28:12.064Z,85.9
2016-12-11T07:29:23.130Z,85.94
2016-12-11T07:30:34.822Z,85.9
2016-12-11T07:31:45.920Z,85.9
2016-12-11T07:32:57.141Z,85.8
2016-12-11T07:34:08.399Z,85.99
2016-12-11T07:35:19.547Z,85.75
2016-12-11T07:36:30.820Z,85.75
2016-12-11T07:37:41.919Z,85.85
2016-12-11T07:38:52.971Z,85.28
2016-12-11T07:40:04.344Z,84.99
2016-12-11T07:41:15.463Z,84.7
2016-12-11T07:42:26.869Z,85.08
2016-12-11T07:43:37.877Z,84.89
2016-12-11T07:44:49.311Z,84.23
2016-12-11T07:46:00.307Z,84.23
2016-12-11T07:47:12.727Z,83.47
2016-12-11T07:48:23.997Z,83.75
2016-12-11T07:49:35.136Z,83.37
2016-12-11T07:50:46.148Z,82.61
2016-12-11T07:51:57.335Z,82.23
2016-12-11T07:53:08.667Z,81.76
2016-12-11T07:54:20.081Z,81.95
2016-12-11T07:55:31.142Z,81.47
2016-12-11T07:56:42.361Z,81.18
2016-12-11T07:57:53.614Z,81.18
2016-12-11T07:59:04.748Z,80.61
2016-12-11T08:00:16.314Z,80.71
2016-12-11T08:01:27.460Z,80.36
2016-12-11T08:02:38.822Z,80.71
2016-12-11T08:03:50.101Z,80.8
2016-12-11T08:05:01.253Z,80.23
2016-12-11T08:06:12.650Z,80.27
2016-12-11T08:07:23.683Z,79.75
2016-12-11T08:08:35.083Z,80.23
2016-12-11T08:09:47.187Z,80.23
2016-12-11T08:11:02.102Z,80.23
2016-12-11T08:12:17.896Z,79.8
2016-12-11T08:13:41.707Z,79.8
2016-12-11T08:15:17.172Z,79.41
2016-12-11T08:16:55.564Z,79.22
2016-12-11T08:18:52.435Z,77.61
2016-12-11T08:20:35.352Z,77.7
2016-12-11T08:22:09.062Z,76.65
2016-12-11T08:24:00.606Z,75.99
2016-12-11T08:25:37.496Z,75.6
2016-12-11T08:27:39.498Z,74.94
2016-12-11T08:29:13.478Z,74.94
2016-12-11T08:30:45.335Z,74.08
2016-12-11T08:31:57.791Z,73.99
2016-12-11T08:33:31.350Z,74.27
2016-12-11T08:35:02.871Z,74.27
2016-12-11T08:36:34.607Z,74.08
2016-12-11T08:38:06.337Z,73.8
2016-12-11T08:39:37.673Z,73.65
2016-12-11T08:40:49.180Z,72.97
2016-12-11T08:42:20.833Z,72.88
2016-12-11T08:43:54.291Z,72.56
2016-12-11T08:45:25.983Z,71.55
2016-12-11T08:46:57.670Z,71.73
2016-12-11T08:48:32.469Z,70.88
2016-12-11T08:50:29.245Z,70.78
2016-12-11T08:51:41.396Z,70.59
2016-12-11T08:53:07.621Z,70.31
2016-12-11T08:54:39.926Z,70.88
2016-12-11T08:56:19.427Z,70.4
2016-12-11T08:57:52.176Z,70.5
2016-12-11T08:59:42.967Z,70.12
2016-12-11T09:00:58.914Z,70.21
2016-12-11T09:02:29.975Z,70.21
2016-12-11T09:03:55.721Z,70.31
2016-12-11T09:05:26.947Z,70.21
2016-12-11T09:06:39.670Z,69.54
2016-12-11T09:08:10.840Z,70.02
2016-12-11T09:09:37.353Z,69.54
2016-12-11T09:11:09.595Z,69.54
2016-12-11T09:12:41.612Z,70.02
2016-12-11T09:13:53.514Z,69.64
2016-12-11T09:15:24.918Z,69.26
2016-12-11T09:16:50.699Z,69.26
2016-12-11T09:18:21.772Z,69.45
2016-12-11T09:19:34.864Z,70.12
2016-12-11T09:21:06.290Z,69.45
2016-12-11T09:22:37.715Z,69.54
2016-12-11T09:24:09.296Z,69.26
2016-12-11T09:25:43.757Z,69.64
2016-12-11T09:27:18.297Z,69.64
2016-12-11T09:28:52.755Z,69.54
2016-12-11T09:30:46.851Z,69.68
2016-12-11T09:32:20.753Z,69.77
2016-12-11T09:33:55.046Z,69.29
2016-12-11T09:35:30.346Z,69.77
2016-12-11T09:37:06.905Z,69.58
2016-12-11T09:38:42.130Z,69.68
2016-12-11T09:40:36.132Z,70.12
2016-12-11T09:42:10.791Z,70.69
2016-12-11T09:43:45.495Z,71.73
2016-12-11T09:45:20.538Z,71.55
2016-12-11T09:46:54.875Z,71.26
2016-12-11T09:48:29.252Z,72.12
2016-12-11T09:50:03.203Z,72.69
2016-12-11T09:51:56.716Z,72.69
2016-12-11T09:53:31.606Z,72.88
2016-12-11T09:55:05.377Z,72.31
2016-12-11T09:56:39.639Z,72.41
2016-12-11T09:58:13.363Z,72.31
2016-12-11T09:59:47.970Z,73.26
2016-12-11T10:01:22.506Z,73.17
2016-12-11T10:02:56.449Z,72.41
2016-12-11T10:04:30.684Z,72.41
2016-12-11T10:06:25.686Z,72.21
2016-12-11T10:08:07.880Z,72.31
2016-12-11T10:10:07.751Z,72.12
2016-12-11T10:12:06.510Z,72.41
2016-12-11T10:13:47.321Z,72.5
2016-12-11T10:15:20.710Z,72.6
2016-12-11T10:17:21.212Z,72.97
2016-12-11T10:18:56.179Z,72.5
2016-12-11T10:20:32.055Z,72.88
2016-12-11T10:22:58.004Z,72.97
2016-12-11T10:24:32.246Z,73.22
2016-12-11T10:26:06.443Z,72.69
2016-12-11T10:27:36.766Z,72.78
2016-12-11T10:29:10.498Z,72.6
2016-12-11T10:30:47.552Z,71.55
2016-12-11T10:32:22.536Z,71.17
2016-12-11T10:33:57.298Z,71.36
2016-12-11T10:35:31.827Z,71.93
2016-12-11T10:37:06.066Z,71.17
2016-12-11T10:38:40.004Z,71.17
2016-12-11T10:40:14.015Z,70.5
2016-12-11T10:41:47.807Z,71.07
2016-12-11T10:43:42.187Z,70.02
2016-12-11T10:45:18.855Z,70.31
2016-12-11T10:46:52.971Z,69.64
2016-12-11T10:48:22.584Z,69.45
2016-12-11T10:49:56.648Z,69.74
2016-12-11T10:51:30.330Z,69.35
2016-12-11T10:53:04.625Z,69.2
2016-12-11T10:54:39.840Z,68.59
2016-12-11T10:56:14.496Z,68.5
2016-12-11T10:57:48.487Z,68.59
2016-12-11T10:59:43.137Z,67.96
2016-12-11T11:01:18.068Z,68.12
2016-12-11T11:02:51.998Z,68.15
2016-12-11T11:04:25.895Z,67.39
2016-12-11T11:06:00.441Z,67.29
2016-12-11T11:07:34.744Z,67
2016-12-11T11:09:08.883Z,66.34
2016-12-11T11:10:42.716Z,66.53
2016-12-11T11:12:16.743Z,66.15
2016-12-11T11:14:11.665Z,66.82
2016-12-11T11:15:47.632Z,65.86
2016-12-11T11:17:22.634Z,66.15
2016-12-11T11:19:25.390Z,66.24
2016-12-11T11:21:00.256Z,66.05
2016-12-11T11:22:34.236Z,65.7
2016-12-11T11:24:08.150Z,65.61
2016-12-11T11:25:42.429Z,65.61
2016-12-11T11:27:16.247Z,65.99
2016-12-11T11:29:10.118Z,65.42
2016-12-11T11:30:44.470Z,65.42
2016-12-11T11:32:18.450Z,65.33
2016-12-11T11:33:52.140Z,65.42
2016-12-11T11:35:21.822Z,65.04
2016-12-11T11:36:35.950Z,65.23
2016-12-11T11:38:30.711Z,64.94
2016-12-11T11:40:04.850Z,65.13
2016-12-11T11:41:39.253Z,64.94
2016-12-11T11:43:14.169Z,65.8
2016-12-11T11:44:48.682Z,64.65
2016-12-11T11:46:24.395Z,64.47
2016-12-11T11:47:58.762Z,65
2016-12-11T11:49:32.854Z,65.39
2016-12-11T11:51:26.748Z,65.48
2016-12-11T11:53:00.480Z,64.75
2016-12-11T11:54:36.059Z,64.18
2016-12-11T11:56:09.930Z,64.56
2016-12-11T11:57:44.510Z,64.56
2016-12-11T11:59:18.358Z,65.42
2016-12-11T12:00:52.946Z,64.56
2016-12-11T12:02:29.251Z,65.04
2016-12-11T12:04:03.356Z,65.1
2016-12-11T12:05:37.816Z,64.85
2016-12-11T12:07:31.362Z,65.67
2016-12-11T12:09:05.640Z,64.81
2016-12-11T12:10:36.186Z,65.58
2016-12-11T12:12:12.629Z,65.39
2016-12-11T12:13:46.885Z,64.62
2016-12-11T12:15:22.083Z,64.43
2016-12-11T12:16:57.014Z,64.62
2016-12-11T12:18:31.488Z,65.2
2016-12-11T12:20:05.351Z,65.1
2016-12-11T12:21:59.529Z,64.43
2016-12-11T12:23:33.524Z,64.62
2016-12-11T12:25:07.461Z,64.34
2016-12-11T12:26:41.196Z,64.53
2016-12-11T12:28:15.319Z,64.72
2016-12-11T12:29:49.745Z,65.2
2016-12-11T12:31:23.214Z,64.72
2016-12-11T12:32:57.167Z,64.62
2016-12-11T12:35:07.172Z,64.81
2016-12-11T12:36:42.161Z,65.58
2016-12-11T12:38:35.642Z,64.72
2016-12-11T12:40:10.522Z,64.24
2016-12-11T12:41:46.616Z,64.24
2016-12-11T12:43:22.193Z,64.72
2016-12-11T12:44:57.303Z,64.91
2016-12-11T12:46:31.932Z,64.15
2016-12-11T12:48:06.291Z,64.05
2016-12-11T12:50:03.548Z,64.05
2016-12-11T12:51:37.283Z,63.29
2016-12-11T12:53:11.728Z,62.72
2016-12-11T12:54:46.184Z,62.72
2016-12-11T12:56:22.590Z,62.91
2016-12-11T12:58:16.254Z,62.72
2016-12-11T12:59:51.271Z,61.67
2016-12-11T13:01:25.647Z,61.99
2016-12-11T13:03:00.846Z,61.22
2016-12-11T13:04:30.321Z,61.48
2016-12-11T13:06:05.085Z,61.29
2016-12-11T13:07:35.461Z,60.94
2016-12-11T13:09:25.807Z,61.86
2016-12-11T13:11:00.053Z,61.86
2016-12-11T13:12:53.742Z,62.34
2016-12-11T13:14:27.457Z,62.62
2016-12-11T13:16:01.826Z,62.62
2016-12-11T13:17:35.707Z,62.46
2016-12-11T13:19:09.508Z,62.91
2016-12-11T13:20:43.445Z,63.39
2016-12-11T13:22:18.551Z,63
2016-12-11T13:23:52.198Z,64.05
2016-12-11T13:25:26.318Z,64.62
2016-12-11T13:27:00.069Z,64.81
2016-12-11T13:28:53.561Z,64.62
2016-12-11T13:30:27.776Z,64.24
2016-12-11T13:32:01.048Z,62.52
2016-12-11T13:33:36.368Z,62.34
2016-12-11T13:35:10.335Z,61.67
2016-12-11T13:36:44.854Z,61.86
2016-12-11T13:38:18.697Z,61.1
2016-12-11T13:39:53.593Z,60.05
2016-12-11T13:41:27.740Z,61.29
2016-12-11T13:43:23.088Z,61.38
2016-12-11T13:44:57.568Z,60.43
2016-12-11T13:46:31.315Z,60.14
2016-12-11T13:48:05.556Z,60.08
2016-12-11T13:49:39.296Z,58.46
2016-12-11T13:51:13.269Z,58.72
2016-12-11T13:52:47.106Z,58.91
2016-12-11T13:54:21.532Z,58.81
2016-12-11T13:55:50.804Z,59
2016-12-11T13:57:25.114Z,58.91
2016-12-11T13:58:59.387Z,58.72
2016-12-11T14:01:00.693Z,58.04
2016-12-11T14:02:34.660Z,58.33
2016-12-11T14:04:08.258Z,58.62
2016-12-11T14:05:41.924Z,58.14
2016-12-11T14:07:15.882Z,58.43
2016-12-11T14:08:46.107Z,57.95
2016-12-11T14:10:19.528Z,57.76
2016-12-11T14:11:53.500Z,58.24
2016-12-11T14:13:27.804Z,58.72
2016-12-11T14:15:01.480Z,58.5
2016-12-11T14:16:36.300Z,58.4
2016-12-11T14:18:10.176Z,58.97
2016-12-11T14:19:44.125Z,58.91
2016-12-11T14:21:18.359Z,59.19
2016-12-11T14:24:22.521Z,58.91
2016-12-11T14:25:56.016Z,59
2016-12-11T14:27:29.921Z,59
2016-12-11T14:29:04.820Z,59.19
2016-12-11T14:30:34.203Z,59.86
2016-12-11T14:32:07.962Z,59.95
2016-12-11T14:33:41.925Z,60.14
2016-12-11T14:35:15.937Z,59.86
2016-12-11T14:36:49.935Z,59.86
2016-12-11T14:38:44.495Z,59.95
2016-12-11T14:40:19.596Z,59.95
2016-12-11T14:41:53.862Z,60.05
2016-12-11T14:43:27.635Z,60.72
2016-12-11T14:45:01.474Z,60.52
2016-12-11T14:46:35.719Z,60.62
2016-12-11T14:48:09.516Z,60.52
2016-12-11T14:49:44.511Z,60.91
2016-12-11T14:51:37.911Z,60.52
2016-12-11T14:53:11.440Z,61.38
2016-12-11T14:54:40.279Z,61.29
2016-12-11T14:55:55.948Z,61.57
2016-12-11T14:57:51.502Z,62.34
2016-12-11T14:59:25.918Z,62.88
2016-12-11T15:00:59.448Z,62.88
2016-12-11T15:02:34.076Z,63.17
2016-12-11T15:04:08.768Z,63.07
2016-12-11T15:05:42.866Z,63.45
2016-12-11T15:07:17.062Z,63.73
2016-12-11T15:09:13.009Z,64.12
2016-12-11T15:10:47.732Z,64.12
2016-12-11T15:12:22.326Z,64.12
2016-12-11T15:14:22.749Z,64.59
2016-12-11T15:15:56.997Z,64.5
2016-12-11T15:17:30.973Z,64.87
2016-12-11T15:19:04.778Z,64.69
2016-12-11T15:20:35.051Z,65.07
2016-12-11T15:22:11.231Z,65.36
2016-12-11T15:23:45.436Z,65.64
2016-12-11T15:25:19.932Z,65.26
2016-12-11T15:26:54.614Z,65.36
2016-12-11T15:28:28.332Z,65.92
2016-12-11T15:30:02.020Z,65.92
2016-12-11T15:31:58.650Z,66.4
2016-12-11T15:33:33.345Z,66.11
2016-12-11T15:35:07.397Z,66.11
2016-12-11T15:36:41.387Z,66.31
2016-12-11T15:38:09.743Z,65.99
2016-12-11T15:39:45.027Z,66.78
2016-12-11T15:41:18.590Z,66.11
2016-12-11T15:42:53.565Z,66.08
2016-12-11T15:44:29.906Z,66.21
2016-12-11T15:46:23.392Z,65.73
2016-12-11T15:47:57.082Z,65.99
2016-12-11T15:49:33.244Z,66.37
2016-12-11T15:51:03.446Z,66.75
2016-12-11T15:52:37.982Z,66.94
2016-12-11T15:54:12.041Z,66.75
2016-12-11T15:55:46.013Z,65.99
2016-12-11T15:57:19.908Z,65.73
2016-12-11T15:58:54.234Z,65.7
2016-12-11T16:00:28.155Z,65.7
2016-12-11T16:02:02.472Z,66.37
2016-12-11T16:03:37.353Z,66.08
2016-12-11T16:05:37.817Z,66.08
2016-12-11T16:07:36.449Z,66.37
2016-12-11T16:09:14.510Z,66.46
2016-12-11T16:10:49.038Z,66.46
2016-12-11T16:12:23.416Z,66.56
2016-12-11T16:14:26.877Z,66.27
2016-12-11T16:16:25.594Z,66.37
2016-12-11T16:18:03.478Z,66.37
2016-12-11T16:19:37.365Z,66.85
2016-12-11T16:21:06.815Z,66.37
2016-12-11T16:22:41.137Z,66.56
2016-12-11T16:24:15.785Z,66.85
2016-12-11T16:25:49.829Z,66.37
2016-12-11T16:27:23.763Z,66.37
2016-12-11T16:28:58.648Z,66.08
2016-12-11T16:30:27.318Z,66.75
2016-12-11T16:32:01.436Z,67.51
2016-12-11T16:33:35.248Z,67.61
2016-12-11T16:35:10.147Z,67.7
2016-12-11T16:36:45.471Z,68.18
2016-12-11T16:38:39.188Z,67.76
2016-12-11T16:40:15.225Z,67.95
2016-12-11T16:41:45.834Z,68.46
2016-12-11T16:43:19.882Z,67.67
2016-12-11T16:44:54.457Z,71.13
2016-12-11T16:46:29.796Z,68.18
2016-12-11T16:48:05.343Z,66.59
2016-12-11T16:49:39.928Z,65.58
2016-12-11T16:51:35.256Z,64.05
2016-12-11T16:53:09.674Z,63.48
2016-12-11T16:54:43.554Z,64.05
2016-12-11T16:56:17.254Z,64.59
2016-12-11T16:57:51.271Z,65.26
2016-12-11T16:59:25.648Z,65.73
2016-12-11T17:00:59.706Z,66.56
2016-12-11T17:02:35.996Z,66.27
2016-12-11T17:04:10.241Z,66.85
2016-12-11T17:06:03.940Z,66.56
2016-12-11T17:07:37.575Z,67.13
2016-12-11T17:09:11.402Z,67.13
2016-12-11T17:10:45.145Z,66.94
2016-12-11T17:12:19.922Z,66.85
2016-12-11T17:13:54.596Z,66.56
2016-12-11T17:15:28.260Z,66.37
2016-12-11T17:17:02.234Z,66.75
2016-12-11T17:18:36.294Z,66.46
2016-12-11T17:20:10.436Z,65.99
2016-12-11T17:21:44.649Z,66.46
2016-12-11T17:23:13.982Z,65.8
2016-12-11T17:24:50.421Z,66.18
2016-12-11T17:26:43.908Z,65.7
2016-12-11T17:28:18.130Z,66.46
2016-12-11T17:29:52.259Z,67.13
2016-12-11T17:31:23.893Z,67.1
2016-12-11T17:32:58.676Z,67.03
2016-12-11T17:34:34.552Z,67.76
2016-12-11T17:36:08.700Z,67.76
2016-12-11T17:37:43.677Z,67.67
2016-12-11T17:39:18.118Z,68.15
2016-12-11T17:41:11.726Z,68.05
2016-12-11T17:42:46.383Z,68.62
2016-12-11T17:44:20.880Z,68.24
2016-12-11T17:45:55.073Z,67.95
2016-12-11T17:47:30.351Z,68.15
2016-12-11T17:49:04.405Z,68.9
2016-12-11T17:51:01.781Z,68.33
2016-12-11T17:52:36.755Z,68.71
2016-12-11T17:54:13.957Z,68.33
2016-12-11T17:55:47.629Z,68.15
2016-12-11T17:57:21.760Z,67.76